Time;durP1;ratioP1;P1;durP2;ratioP2;P2;SDS_P1;SDS_P2;PMS_P1;PMS_P2;Temp;Humidity;BMP_temperature;BMP_pressure;BME280_temperature;BME280_humidity;BME280_pressure;Samples;Min_cycle;Max_cycle;Signal;HPM_P1;HPM_P2
2022/06/16 00:01:09;;;;;;;11.07;5.03;;;;;;;;;;4926095;29;20110;-76
2022/06/16 00:03:36;;;;;;;13.68;5.65;;;;;;;;;;4926429;29;20886;-77
2022/06/16 00:06:04;;;;;;;10.18;4.90;;;;;;;;;;4926540;29;20059;-77
2022/06/16 00:08:31;;;;;;;9.23;4.72;;;;;;;;;;4925844;29;20532;-77
2022/06/16 00:11:17;;;;;;;13.30;5.10;;;;;;;;;;4925177;29;20177;-76
2022/06/16 00:13:44;;;;;;;9.10;5.13;;;;;;;;;;4922457;29;20881;-77
2022/06/16 00:16:12;;;;;;;10.25;5.10;;;;;;;;;;4921306;29;20052;-77
2022/06/16 00:18:41;;;;;;;11.07;4.88;;;;;;;;;;4941622;29;20058;-77
2022/06/16 00:21:08;;;;;;;14.23;5.82;;;;;;;;;;4938672;29;20486;-77
2022/06/16 00:23:36;;;;;;;10.32;4.60;;;;;;;;;;4927142;29;20060;-77
2022/06/16 00:26:11;;;;;;;9.27;5.10;;;;;;;;;;4925011;29;20102;-77
2022/06/16 00:28:40;;;;;;;11.32;4.95;;;;;;;;;;4933635;29;20114;-77
2022/06/16 00:31:08;;;;;;;7.18;4.35;;;;;;;;;;4932586;29;20055;-77
2022/06/16 00:33:37;;;;;;;11.18;4.93;;;;;;;;;;4931633;29;20056;-77
2022/06/16 00:36:05;;;;;;;9.43;4.80;;;;;;;;;;4931202;29;20126;-77
2022/06/16 00:38:32;;;;;;;8.98;4.78;;;;;;;;;;4933169;29;20143;-77
2022/06/16 00:41:00;;;;;;;8.73;5.20;;;;;;;;;;4932710;29;20138;-77
2022/06/16 00:43:27;;;;;;;9.18;4.35;;;;;;;;;;4930144;29;20143;-77
2022/06/16 00:46:01;;;;;;;11.25;4.75;;;;;;;;;;4921088;29;20508;-77
2022/06/16 00:48:43;;;;;;;9.50;4.68;;;;;;;;;;4920091;29;20166;-77
2022/06/16 00:51:14;;;;;;;12.65;4.93;;;;;;;;;;4915235;29;20139;-77
2022/06/16 00:53:41;;;;;;;10.15;5.32;;;;;;;;;;4920472;29;20500;-77
2022/06/16 00:56:11;;;;;;;6.93;4.85;;;;;;;;;;4925458;29;20083;-77
2022/06/16 00:58:40;;;;;;;7.20;4.70;;;;;;;;;;4927819;29;20643;-76
2022/06/16 01:01:08;;;;;;;8.13;5.28;;;;;;;;;;4923473;29;20106;-76
2022/06/16 01:06:27;;;;;;;9.77;5.30;;;;;;;;;;4930043;29;20135;-77
2022/06/16 01:09:00;;;;;;;10.25;5.38;;;;;;;;;;4927313;29;20060;-77
2022/06/16 01:14:13;;;;;;;;;;;;;;;;;;4931310;29;20078;-77
2022/06/16 01:16:45;;;;;;;11.45;5.53;;;;;;;;;;4931925;29;19974;-77
2022/06/16 01:19:12;;;;;;;11.13;5.90;;;;;;;;;;4930450;29;20043;-77
2022/06/16 01:21:53;;;;;;;11.52;5.45;;;;;;;;;;4932015;29;20056;-77
2022/06/16 01:24:24;;;;;;;11.02;5.55;;;;;;;;;;4931479;29;20052;-77
2022/06/16 01:26:54;;;;;;;10.65;5.63;;;;;;;;;;4928101;29;20150;-77
2022/06/16 01:29:24;;;;;;;11.57;5.38;;;;;;;;;;4929879;29;20801;-77
2022/06/16 01:31:51;;;;;;;11.25;4.90;;;;;;;;;;4920184;29;20154;-80
2022/06/16 01:34:37;;;;;;;11.43;5.93;;;;;;;;;;4933792;29;20066;-79
2022/06/16 01:37:04;;;;;;;;;;;;;;;;;;4929537;29;20142;-79
2022/06/16 01:39:32;;;;;;;16.60;5.35;;;;;;;;;;4910543;29;19931;-79
2022/06/16 01:42:03;;;;;;;11.15;5.10;;;;;;;;;;4911726;29;20155;-79
2022/06/16 01:44:35;;;;;;;10.55;5.15;;;;;;;;;;4910814;29;20147;-80
2022/06/16 01:47:06;;;;;;;7.65;5.03;;;;;;;;;;4910826;29;20052;-79
2022/06/16 01:49:36;;;;;;;11.25;5.15;;;;;;;;;;4920650;29;20063;-79
2022/06/16 01:52:17;;;;;;;10.18;5.15;;;;;;;;;;4930085;29;20775;-79
2022/06/16 01:54:46;;;;;;;9.13;5.07;;;;;;;;;;4928925;29;20063;-79
2022/06/16 01:57:26;;;;;;;10.55;5.45;;;;;;;;;;4928923;29;20052;-78
2022/06/16 02:00:13;;;;;;;9.73;4.90;;;;;;;;;;4928061;29;20162;-78
2022/06/16 02:02:41;;;;;;;13.25;5.68;;;;;;;;;;4930097;29;20047;-78
2022/06/16 02:05:11;;;;;;;7.75;4.88;;;;;;;;;;4928510;29;20075;-77
2022/06/16 02:07:42;;;;;;;14.88;5.15;;;;;;;;;;4944277;29;20158;-77
2022/06/16 02:10:13;;;;;;;8.90;4.95;;;;;;;;;;4928035;29;20135;-78
2022/06/16 02:12:56;;;;;;;12.70;6.07;;;;;;;;;;4928799;29;20151;-78
2022/06/16 02:15:42;;;;;;;9.65;5.18;;;;;;;;;;4916961;29;20087;-78
2022/06/16 02:18:11;;;;;;;7.30;4.78;;;;;;;;;;4910457;29;20210;-77
2022/06/16 02:20:47;;;;;;;9.00;5.50;;;;;;;;;;4912957;29;20155;-77
2022/06/16 02:23:15;;;;;;;10.45;5.13;;;;;;;;;;4927539;29;20146;-77
2022/06/16 02:25:44;;;;;;;12.90;5.43;;;;;;;;;;4929522;29;20146;-77
2022/06/16 02:28:12;;;;;;;8.95;5.32;;;;;;;;;;4922436;29;20079;-77
2022/06/16 02:30:46;;;;;;;9.57;5.60;;;;;;;;;;4910290;29;20095;-78
2022/06/16 02:33:23;;;;;;;12.85;5.60;;;;;;;;;;4909108;29;20056;-77
2022/06/16 02:35:55;;;;;;;12.20;5.63;;;;;;;;;;4910768;29;20519;-77
2022/06/16 02:38:25;;;;;;;10.48;6.40;;;;;;;;;;4910466;29;20060;-78
2022/06/16 02:41:11;;;;;;;12.85;5.50;;;;;;;;;;4918580;29;20180;-78
2022/06/16 02:44:14;;;;;;;9.18;5.10;;;;;;;;;;4910459;29;20143;-78
2022/06/16 02:46:52;;;;;;;9.13;5.68;;;;;;;;;;4869862;29;20085;-78
2022/06/16 02:49:26;;;;;;;9.27;5.45;;;;;;;;;;4907189;29;20079;-78
2022/06/16 02:51:57;;;;;;;9.15;5.55;;;;;;;;;;4909974;29;20104;-78
2022/06/16 02:54:30;;;;;;;12.07;5.68;;;;;;;;;;4927470;29;20573;-78
2022/06/16 02:57:13;;;;;;;10.48;5.20;;;;;;;;;;4929060;29;20138;-78
2022/06/16 02:59:49;;;;;;;8.85;5.60;;;;;;;;;;4910839;29;20056;-78
2022/06/16 03:02:17;;;;;;;12.15;5.65;;;;;;;;;;4910408;29;20591;-78
2022/06/16 03:04:47;;;;;;;11.45;6.20;;;;;;;;;;4924761;29;20059;-78
2022/06/16 03:07:15;;;;;;;12.65;6.32;;;;;;;;;;4929367;29;20178;-78
2022/06/16 03:09:42;;;;;;;10.48;5.75;;;;;;;;;;4942778;29;20485;-78
2022/06/16 03:12:11;;;;;;;11.85;6.32;;;;;;;;;;4928583;29;20083;-78
2022/06/16 03:14:39;;;;;;;8.73;5.70;;;;;;;;;;4927025;29;20056;-78
2022/06/16 03:17:07;;;;;;;12.63;5.28;;;;;;;;;;4928531;29;20064;-78
2022/06/16 03:19:35;;;;;;;10.43;5.75;;;;;;;;;;4925502;29;20091;-78
2022/06/16 03:22:02;;;;;;;10.38;6.13;;;;;;;;;;4927449;29;20079;-78
2022/06/16 03:24:30;;;;;;;10.30;6.13;;;;;;;;;;4916211;29;20556;-78
2022/06/16 03:26:57;;;;;;;8.65;5.55;;;;;;;;;;4928201;29;20075;-78
2022/06/16 03:29:25;;;;;;;11.27;6.00;;;;;;;;;;4924857;29;20079;-78
2022/06/16 03:31:53;;;;;;;13.55;6.25;;;;;;;;;;4926640;29;20111;-78
2022/06/16 03:34:20;;;;;;;9.57;6.00;;;;;;;;;;4927036;29;20055;-78
2022/06/16 03:36:47;;;;;;;10.95;6.03;;;;;;;;;;4928299;29;20161;-79
2022/06/16 03:39:15;;;;;;;12.60;6.32;;;;;;;;;;4912673;29;20139;-78
2022/06/16 03:41:42;;;;;;;14.68;6.70;;;;;;;;;;4908852;29;20087;-78
2022/06/16 03:44:09;;;;;;;12.93;6.70;;;;;;;;;;4908215;29;20143;-78
2022/06/16 03:46:37;;;;;;;11.50;6.55;;;;;;;;;;4922043;29;20052;-78
2022/06/16 03:49:05;;;;;;;15.38;6.32;;;;;;;;;;4929130;29;20883;-79
2022/06/16 03:51:32;;;;;;;12.48;6.53;;;;;;;;;;4906882;29;20164;-78
2022/06/16 03:54:00;;;;;;;13.52;6.47;;;;;;;;;;4907405;29;20052;-78
2022/06/16 03:56:27;;;;;;;11.45;5.65;;;;;;;;;;4907832;29;20084;-78
2022/06/16 03:58:56;;;;;;;10.25;6.15;;;;;;;;;;4908380;29;20477;-79
2022/06/16 04:01:23;;;;;;;10.93;5.97;;;;;;;;;;4908701;29;20083;-78
2022/06/16 04:04:00;;;;;;;12.43;6.93;;;;;;;;;;4908918;29;20048;-78
2022/06/16 04:06:36;;;;;;;12.25;6.35;;;;;;;;;;4924865;29;20409;-79
2022/06/16 04:09:05;;;;;;;12.43;6.32;;;;;;;;;;4927395;29;20055;-78
2022/06/16 04:11:32;;;;;;;13.18;6.85;;;;;;;;;;4927549;29;20524;-79
2022/06/16 04:14:10;;;;;;;28.80;8.27;;;;;;;;;;4926628;29;20081;-78
2022/06/16 04:16:41;;;;;;;12.38;6.38;;;;;;;;;;4926566;29;20142;-78
2022/06/16 04:19:11;;;;;;;13.40;6.40;;;;;;;;;;4915576;29;20044;-78
2022/06/16 04:21:41;;;;;;;14.80;5.85;;;;;;;;;;4909605;29;20075;-78
2022/06/16 04:24:08;;;;;;;59.05;8.05;;;;;;;;;;4926552;29;20075;-78
2022/06/16 04:26:39;;;;;;;25.08;6.57;;;;;;;;;;4922892;29;20171;-78
2022/06/16 04:29:07;;;;;;;18.30;6.82;;;;;;;;;;4915805;29;20564;-78
2022/06/16 04:31:35;;;;;;;15.13;6.47;;;;;;;;;;4915172;29;20139;-78
2022/06/16 04:34:03;;;;;;;13.70;6.50;;;;;;;;;;4916937;29;20208;-78
2022/06/16 04:36:30;;;;;;;11.55;6.55;;;;;;;;;;4932536;29;20410;-80
2022/06/16 04:38:58;;;;;;;13.20;7.00;;;;;;;;;;4923636;29;20056;-81
2022/06/16 04:41:25;;;;;;;14.02;7.35;;;;;;;;;;4926096;29;20084;-79
2022/06/16 04:43:52;;;;;;;11.55;6.85;;;;;;;;;;4920821;29;20497;-77
2022/06/16 04:46:20;;;;;;;31.95;10.18;;;;;;;;;;4927802;29;20050;-80
2022/06/16 04:48:48;;;;;;;13.48;6.63;;;;;;;;;;4928569;29;20095;-77
2022/06/16 04:51:16;;;;;;;14.63;6.80;;;;;;;;;;4938265;29;20134;-78
2022/06/16 04:53:43;;;;;;;13.95;6.97;;;;;;;;;;4925164;29;20079;-77
2022/06/16 04:56:10;;;;;;;8.68;6.43;;;;;;;;;;4917584;29;20441;-77
2022/06/16 04:58:38;;;;;;;19.17;7.00;;;;;;;;;;4912000;29;20147;-77
2022/06/16 05:01:05;;;;;;;12.73;6.60;;;;;;;;;;4908761;29;20305;-77
2022/06/16 05:03:48;;;;;;;13.10;6.95;;;;;;;;;;4909364;29;20056;-78
2022/06/16 05:06:17;;;;;;;18.48;7.13;;;;;;;;;;4924371;29;20552;-80
2022/06/16 05:08:44;;;;;;;15.88;7.88;;;;;;;;;;4919078;29;20108;-76
2022/06/16 05:11:11;;;;;;;15.60;6.18;;;;;;;;;;4912852;29;20135;-76
2022/06/16 05:13:39;;;;;;;13.20;6.28;;;;;;;;;;4924159;29;20127;-76
2022/06/16 05:16:06;;;;;;;15.18;6.88;;;;;;;;;;4929625;29;20139;-78
2022/06/16 05:18:33;;;;;;;15.05;6.13;;;;;;;;;;4921270;29;20051;-77
2022/06/16 05:21:08;;;;;;;13.52;7.25;;;;;;;;;;4924866;29;20087;-78
2022/06/16 05:23:35;;;;;;;12.57;7.10;;;;;;;;;;4921905;29;20157;-78
2022/06/16 05:26:03;;;;;;;12.38;7.40;;;;;;;;;;4928237;29;20076;-79
2022/06/16 05:28:31;;;;;;;20.42;7.30;;;;;;;;;;4917961;29;20047;-76
2022/06/16 05:30:58;;;;;;;10.85;6.85;;;;;;;;;;4917892;29;20135;-79
2022/06/16 05:33:26;;;;;;;19.63;7.88;;;;;;;;;;4921165;29;20752;-80
2022/06/16 05:36:00;;;;;;;13.13;6.60;;;;;;;;;;4931025;29;20047;-77
2022/06/16 05:38:28;;;;;;;14.73;6.65;;;;;;;;;;4928400;29;20135;-78
2022/06/16 05:40:59;;;;;;;14.75;6.25;;;;;;;;;;4925421;29;20076;-83
2022/06/16 05:43:26;;;;;;;14.93;6.43;;;;;;;;;;4930185;29;20095;-83
2022/06/16 05:45:53;;;;;;;13.75;6.00;;;;;;;;;;4936749;29;20052;-83
2022/06/16 05:48:21;;;;;;;14.05;6.03;;;;;;;;;;4944500;29;20051;-83
2022/06/16 05:50:48;;;;;;;10.48;5.63;;;;;;;;;;4946841;29;20047;-83
2022/06/16 05:53:15;;;;;;;15.57;6.65;;;;;;;;;;4942739;29;20078;-82
2022/06/16 05:55:43;;;;;;;27.17;5.95;;;;;;;;;;4933923;29;20087;-82
2022/06/16 05:58:10;;;;;;;31.08;7.35;;;;;;;;;;4929098;29;20572;-82
2022/06/16 06:00:38;;;;;;;14.52;5.28;;;;;;;;;;4910021;29;20202;-82
2022/06/16 06:03:05;;;;;;;19.75;6.60;;;;;;;;;;4910178;29;20159;-83
2022/06/16 06:05:33;;;;;;;34.80;7.25;;;;;;;;;;4928227;29;20056;-82
2022/06/16 06:16:26;;;;;;;11.73;6.30;;;;;;;;;;4916285;29;20529;-81
2022/06/16 06:18:54;;;;;;;14.23;5.95;;;;;;;;;;4924623;29;20056;-81
2022/06/16 06:21:58;;;;;;;14.50;5.88;;;;;;;;;;4922389;29;20142;-82
2022/06/16 06:24:10;;;;;;;10.30;5.88;;;;;;;;;;4925084;29;20790;-83
2022/06/16 06:26:38;;;;;;;15.40;5.70;;;;;;;;;;4942366;29;20076;-82
2022/06/16 06:29:05;;;;;;;13.82;5.20;;;;;;;;;;4941101;29;20893;-82
2022/06/16 06:31:33;;;;;;;12.70;5.53;;;;;;;;;;4927053;29;20051;-82
2022/06/16 06:34:01;;;;;;;9.27;4.90;;;;;;;;;;4927846;29;20194;-83
2022/06/16 06:36:28;;;;;;;10.38;4.28;;;;;;;;;;4929727;29;20106;-82
2022/06/16 06:38:55;;;;;;;13.25;4.43;;;;;;;;;;4934797;29;20122;-84
2022/06/16 06:41:23;;;;;;;9.77;4.15;;;;;;;;;;4933442;29;20067;-83
2022/06/16 06:43:51;;;;;;;7.72;3.65;;;;;;;;;;4927107;29;20409;-82
2022/06/16 06:46:18;;;;;;;8.02;4.05;;;;;;;;;;4933752;29;20501;-83
2022/06/16 06:48:46;;;;;;;7.03;3.25;;;;;;;;;;4929171;29;20059;-80
2022/06/16 06:51:13;;;;;;;12.00;3.30;;;;;;;;;;4923406;29;20086;-82
2022/06/16 06:53:40;;;;;;;6.57;2.25;;;;;;;;;;4923229;29;20152;-80
2022/06/16 06:56:08;;;;;;;7.28;2.65;;;;;;;;;;4923134;29;20126;-82
2022/06/16 06:58:35;;;;;;;6.00;2.53;;;;;;;;;;4922580;29;20139;-81
2022/06/16 07:01:02;;;;;;;5.68;2.10;;;;;;;;;;4919614;29;20087;-80
2022/06/16 07:03:30;;;;;;;7.00;1.98;;;;;;;;;;4924020;29;20055;-82
2022/06/16 07:05:59;;;;;;;10.40;2.88;;;;;;;;;;4928513;29;20044;-80
2022/06/16 07:08:26;;;;;;;11.27;2.15;;;;;;;;;;4928201;29;20056;-81
2022/06/16 07:10:53;;;;;;;8.10;2.22;;;;;;;;;;4912380;29;20091;-82
2022/06/16 07:13:21;;;;;;;6.40;1.90;;;;;;;;;;4926291;29;20134;-81
2022/06/16 07:15:48;;;;;;;4.80;1.83;;;;;;;;;;4924909;29;20083;-81
2022/06/16 07:18:15;;;;;;;7.05;1.70;;;;;;;;;;4927346;29;20831;-81
2022/06/16 07:20:43;;;;;;;8.43;2.30;;;;;;;;;;4914689;29;20059;-80
2022/06/16 07:23:11;;;;;;;5.90;2.08;;;;;;;;;;4933661;29;20083;-80
2022/06/16 07:25:38;;;;;;;5.60;2.13;;;;;;;;;;4922955;29;20075;-83
2022/06/16 07:28:06;;;;;;;5.22;1.67;;;;;;;;;;4923519;29;20095;-83
2022/06/16 07:30:33;;;;;;;8.25;1.90;;;;;;;;;;4924498;29;20733;-83
2022/06/16 07:33:01;;;;;;;4.88;1.63;;;;;;;;;;4931581;29;20527;-83
2022/06/16 07:35:28;;;;;;;6.60;1.90;;;;;;;;;;4934659;29;20130;-84
2022/06/16 07:37:55;;;;;;;3.15;1.88;;;;;;;;;;4934315;29;20071;-82
2022/06/16 07:40:24;;;;;;;4.78;1.63;;;;;;;;;;4915962;29;20052;-80
2022/06/16 07:42:56;;;;;;;9.38;1.83;;;;;;;;;;4921790;29;20054;-82
2022/06/16 07:45:24;;;;;;;8.60;1.90;;;;;;;;;;4935299;29;20094;-81
2022/06/16 07:47:54;;;;;;;5.90;1.77;;;;;;;;;;4914076;29;20076;-82
2022/06/16 07:50:22;;;;;;;65.97;7.35;;;;;;;;;;4925723;29;20565;-81
2022/06/16 07:52:49;;;;;;;4.60;1.58;;;;;;;;;;4911070;29;20060;-81
2022/06/16 07:55:18;;;;;;;7.55;1.80;;;;;;;;;;4912966;29;20087;-80
2022/06/16 07:57:47;;;;;;;5.90;1.98;;;;;;;;;;4910163;29;20059;-80
2022/06/16 08:00:17;;;;;;;13.93;2.42;;;;;;;;;;4917883;29;20157;-80
2022/06/16 08:02:44;;;;;;;7.28;2.28;;;;;;;;;;4928002;29;20142;-78
2022/06/16 08:05:12;;;;;;;4.47;1.45;;;;;;;;;;4926186;29;20056;-77
2022/06/16 08:07:40;;;;;;;6.10;2.05;;;;;;;;;;4927911;29;20127;-78
2022/06/16 08:10:09;;;;;;;7.53;1.70;;;;;;;;;;4913380;29;20163;-78
2022/06/16 08:12:37;;;;;;;3.42;1.27;;;;;;;;;;4923610;29;20059;-80
2022/06/16 08:15:04;;;;;;;4.53;1.50;;;;;;;;;;4923555;29;20158;-80
2022/06/16 08:17:33;;;;;;;5.03;1.70;;;;;;;;;;4928163;29;20055;-80
2022/06/16 08:20:01;;;;;;;9.32;1.40;;;;;;;;;;4918121;29;20737;-80
2022/06/16 08:22:28;;;;;;;5.20;1.63;;;;;;;;;;4917412;29;20139;-78
2022/06/16 08:24:56;;;;;;;6.10;1.88;;;;;;;;;;4914833;29;20079;-77
2022/06/16 08:27:25;;;;;;;2.10;1.27;;;;;;;;;;4913345;29;20051;-80
2022/06/16 08:29:52;;;;;;;9.90;1.85;;;;;;;;;;4920709;29;20055;-78
2022/06/16 08:32:20;;;;;;;4.85;1.58;;;;;;;;;;4918819;29;20501;-79
2022/06/16 08:34:48;;;;;;;8.30;1.60;;;;;;;;;;4912689;29;20062;-79
2022/06/16 08:37:16;;;;;;;4.75;1.40;;;;;;;;;;4932788;29;20155;-78
2022/06/16 08:39:43;;;;;;;6.43;2.38;;;;;;;;;;4917944;29;20134;-79
2022/06/16 08:42:16;;;;;;;10.60;1.88;;;;;;;;;;4918959;29;20058;-81
2022/06/16 08:45:01;;;;;;;6.97;1.58;;;;;;;;;;4921604;29;20079;-79
2022/06/16 08:47:46;;;;;;;6.88;2.22;;;;;;;;;;4931710;29;20058;-80
2022/06/16 08:50:25;;;;;;;11.00;1.92;;;;;;;;;;4920573;29;20191;-81
2022/06/16 08:52:53;;;;;;;3.72;1.30;;;;;;;;;;4922647;29;20051;-78
2022/06/16 08:55:25;;;;;;;5.72;1.50;;;;;;;;;;4922589;29;20602;-78
2022/06/16 08:57:52;;;;;;;3.35;1.30;;;;;;;;;;4924482;29;20142;-77
2022/06/16 09:00:21;;;;;;;6.18;1.55;;;;;;;;;;4920738;29;20048;-78
2022/06/16 09:03:07;;;;;;;7.53;1.73;;;;;;;;;;4919166;29;20141;-78
2022/06/16 09:05:53;;;;;;;5.15;1.50;;;;;;;;;;4918289;29;20135;-78
2022/06/16 09:08:21;;;;;;;11.77;1.83;;;;;;;;;;4916794;29;20220;-78
2022/06/16 09:11:10;;;;;;;2.88;1.38;;;;;;;;;;4921238;29;20051;-77
2022/06/16 09:14:00;;;;;;;3.30;1.40;;;;;;;;;;4917822;29;20142;-78
2022/06/16 09:16:30;;;;;;;12.93;2.28;;;;;;;;;;4918114;29;20059;-78
2022/06/16 09:19:07;;;;;;;6.13;1.83;;;;;;;;;;4941876;29;20053;-79
2022/06/16 09:21:40;;;;;;;43.60;3.42;;;;;;;;;;4912627;29;20182;-78
2022/06/16 09:24:11;;;;;;;8.00;1.60;;;;;;;;;;4922599;29;20047;-80
2022/06/16 09:26:46;;;;;;;4.55;1.63;;;;;;;;;;4927320;29;20056;-81
2022/06/16 09:29:20;;;;;;;6.20;1.67;;;;;;;;;;4917249;29;20107;-81
2022/06/16 09:31:55;;;;;;;11.13;1.92;;;;;;;;;;4920552;29;20134;-82
2022/06/16 09:34:33;;;;;;;6.72;1.60;;;;;;;;;;4915332;29;20071;-82
2022/06/16 09:37:04;;;;;;;3.40;1.40;;;;;;;;;;4918577;29;20464;-82
2022/06/16 09:39:34;;;;;;;6.63;1.83;;;;;;;;;;4934389;29;20709;-83
2022/06/16 09:42:49;;;;;;;5.45;1.65;;;;;;;;;;4934435;29;20469;-83
2022/06/16 09:45:22;;;;;;;4.93;1.58;;;;;;;;;;4893541;29;20500;-83
2022/06/16 09:47:52;;;;;;;7.07;1.70;;;;;;;;;;4875497;29;20185;-85
2022/06/16 09:50:42;;;;;;;5.47;1.30;;;;;;;;;;4897736;29;20056;-84
2022/06/16 09:53:13;;;;;;;1.83;1.08;;;;;;;;;;4912070;29;20094;-83
2022/06/16 09:55:59;;;;;;;4.68;1.77;;;;;;;;;;4934533;29;20107;-84
2022/06/16 09:58:56;;;;;;;8.65;2.20;;;;;;;;;;4931382;29;20119;-83
2022/06/16 10:01:25;;;;;;;4.40;1.50;;;;;;;;;;4906974;29;20135;-84
2022/06/16 10:03:56;;;;;;;7.43;1.52;;;;;;;;;;4921070;29;20048;-83
2022/06/16 10:06:42;;;;;;;8.88;1.27;;;;;;;;;;4934913;29;20060;-83
2022/06/16 10:09:16;;;;;;;6.03;1.65;;;;;;;;;;4918188;29;20159;-83
2022/06/16 10:11:50;;;;;;;7.17;1.60;;;;;;;;;;4914859;29;20044;-84
2022/06/16 10:14:20;;;;;;;6.40;2.00;;;;;;;;;;4912878;29;20119;-83
2022/06/16 10:16:50;;;;;;;4.80;1.40;;;;;;;;;;4914842;29;20087;-83
2022/06/16 10:19:19;;;;;;;3.67;1.52;;;;;;;;;;4932699;29;20742;-83
2022/06/16 10:21:46;;;;;;;2.33;1.50;;;;;;;;;;4932303;29;20154;-84
2022/06/16 10:24:14;;;;;;;6.10;1.40;;;;;;;;;;4934040;29;20126;-83
2022/06/16 10:26:41;;;;;;;8.20;1.52;;;;;;;;;;4925139;29;20149;-83
2022/06/16 10:29:23;;;;;;;2.90;1.77;;;;;;;;;;4933070;29;20055;-84
2022/06/16 10:31:51;;;;;;;3.88;1.00;;;;;;;;;;4932479;29;20089;-83
2022/06/16 10:34:30;;;;;;;5.85;1.50;;;;;;;;;;4927332;29;20052;-83
2022/06/16 10:37:10;;;;;;;5.78;1.70;;;;;;;;;;4916299;29;20068;-83
2022/06/16 10:39:43;;;;;;;9.38;1.33;;;;;;;;;;4934390;29;20106;-83
2022/06/16 10:42:17;;;;;;;10.07;2.05;;;;;;;;;;4933684;29;20043;-84
2022/06/16 10:44:56;;;;;;;3.15;1.60;;;;;;;;;;4931121;29;20079;-83
2022/06/16 10:47:32;;;;;;;7.03;1.55;;;;;;;;;;4930938;29;20576;-83
2022/06/16 10:50:01;;;;;;;4.03;1.08;;;;;;;;;;4915114;29;20099;-84
2022/06/16 10:52:30;;;;;;;6.72;1.30;;;;;;;;;;4923465;29;20083;-84
2022/06/16 10:54:58;;;;;;;4.57;1.35;;;;;;;;;;4933488;29;20068;-83
2022/06/16 10:57:28;;;;;;;7.95;2.63;;;;;;;;;;4928779;29;20130;-83
2022/06/16 11:00:04;;;;;;;3.88;1.35;;;;;;;;;;4914754;29;20071;-83
2022/06/16 11:02:35;;;;;;;4.70;1.30;;;;;;;;;;4922097;29;20083;-84
2022/06/16 11:05:02;;;;;;;8.93;1.60;;;;;;;;;;4934435;29;20076;-85
2022/06/16 11:07:35;;;;;;;4.22;1.38;;;;;;;;;;4949035;28;20052;-83
2022/06/16 11:10:10;;;;;;;4.82;1.10;;;;;;;;;;4933977;29;20618;-82
2022/06/16 11:12:39;;;;;;;5.53;1.42;;;;;;;;;;4939842;29;20144;-83
2022/06/16 11:15:23;;;;;;;10.93;2.08;;;;;;;;;;4915450;29;20130;-83
2022/06/16 11:17:53;;;;;;;4.65;1.13;;;;;;;;;;4915341;29;20082;-83
2022/06/16 11:20:40;;;;;;;8.55;1.10;;;;;;;;;;4915277;29;20060;-83
2022/06/16 11:23:17;;;;;;;6.25;1.00;;;;;;;;;;4914365;29;20144;-82
2022/06/16 11:25:45;;;;;;;3.90;1.33;;;;;;;;;;4932693;29;20044;-82
2022/06/16 11:28:14;;;;;;;5.07;1.02;;;;;;;;;;4933707;29;20106;-83
2022/06/16 11:30:43;;;;;;;4.32;1.35;;;;;;;;;;4920020;29;20131;-83
2022/06/16 11:36:29;;;;;;;7.63;1.40;;;;;;;;;;4915233;29;20120;-82
2022/06/16 11:39:15;;;;;;;3.38;1.15;;;;;;;;;;4912171;29;20840;-82
2022/06/16 11:41:46;;;;;;;3.05;0.90;;;;;;;;;;4930179;29;20134;-82
2022/06/16 11:44:21;;;;;;;7.40;1.20;;;;;;;;;;4945571;29;20102;-82
2022/06/16 11:47:09;;;;;;;4.38;0.93;;;;;;;;;;4930428;29;20075;-82
2022/06/16 11:49:44;;;;;;;2.88;1.30;;;;;;;;;;4928059;29;20135;-82
2022/06/16 11:52:20;;;;;;;2.70;1.10;;;;;;;;;;4930074;29;20428;-82
2022/06/16 11:54:59;;;;;;;5.40;1.08;;;;;;;;;;4929460;29;20146;-82
2022/06/16 11:57:42;;;;;;;4.60;1.10;;;;;;;;;;4927626;29;20599;-82
2022/06/16 12:00:16;;;;;;;1.73;0.70;;;;;;;;;;4921706;29;20088;-81
2022/06/16 12:03:02;;;;;;;2.13;0.68;;;;;;;;;;4911224;29;20075;-82
2022/06/16 12:05:38;;;;;;;3.45;0.93;;;;;;;;;;4909041;29;20052;-82
2022/06/16 12:08:08;;;;;;;0.73;0.50;;;;;;;;;;4910535;29;20055;-82
2022/06/16 12:10:38;;;;;;;2.92;0.70;;;;;;;;;;4919380;29;20851;-82
2022/06/16 12:13:24;;;;;;;7.93;0.98;;;;;;;;;;4930202;29;20186;-83
2022/06/16 12:15:57;;;;;;;3.22;0.95;;;;;;;;;;4942895;29;20085;-83
2022/06/16 12:19:03;;;;;;;2.35;0.70;;;;;;;;;;4910734;29;20151;-82
2022/06/16 12:21:40;;;;;;;26.60;1.92;;;;;;;;;;4864089;29;20057;-82
2022/06/16 12:24:19;;;;;;;2.50;0.60;;;;;;;;;;4869873;29;20064;-82
2022/06/16 12:27:05;;;;;;;1.45;0.55;;;;;;;;;;4912200;29;20075;-82
2022/06/16 12:29:42;;;;;;;3.03;0.63;;;;;;;;;;4928372;29;20047;-82
2022/06/16 12:32:10;;;;;;;2.95;0.80;;;;;;;;;;4943051;29;20083;-83
2022/06/16 12:34:37;;;;;;;3.75;0.63;;;;;;;;;;4928408;29;20060;-82
2022/06/16 12:37:07;;;;;;;4.05;0.90;;;;;;;;;;4928640;29;20099;-82
2022/06/16 12:39:50;;;;;;;4.00;1.00;;;;;;;;;;4926885;29;20051;-82
2022/06/16 12:42:20;;;;;;;2.80;0.80;;;;;;;;;;4928532;29;20501;-82
2022/06/16 12:44:52;;;;;;;2.83;0.85;;;;;;;;;;4928301;29;20087;-82
2022/06/16 12:47:23;;;;;;;3.70;0.80;;;;;;;;;;4913861;29;20052;-82
2022/06/16 12:49:51;;;;;;;8.07;0.70;;;;;;;;;;4913271;29;20086;-81
2022/06/16 12:52:24;;;;;;;3.92;0.73;;;;;;;;;;4924594;29;20520;-82
2022/06/16 12:54:51;;;;;;;1.67;0.82;;;;;;;;;;4928586;29;20102;-82
2022/06/16 12:57:20;;;;;;;6.43;1.00;;;;;;;;;;4927920;29;20915;-82
2022/06/16 12:59:52;;;;;;;4.90;1.10;;;;;;;;;;4923419;29;20134;-82
2022/06/16 13:02:22;;;;;;;5.65;1.13;;;;;;;;;;4927573;29;20055;-85
2022/06/16 13:04:51;;;;;;;6.72;1.15;;;;;;;;;;4926509;29;20052;-81
2022/06/16 13:07:20;;;;;;;3.90;1.27;;;;;;;;;;4926911;29;20063;-82
2022/06/16 13:09:47;;;;;;;7.25;0.90;;;;;;;;;;4926590;29;20127;-82
2022/06/16 13:12:21;;;;;;;4.22;0.73;;;;;;;;;;4928921;29;20083;-83
2022/06/16 13:14:51;;;;;;;6.22;0.80;;;;;;;;;;4928856;29;20063;-82
2022/06/16 13:17:25;;;;;;;9.48;0.80;;;;;;;;;;4914249;29;20135;-83
2022/06/16 13:19:57;;;;;;;4.80;0.80;;;;;;;;;;4911617;29;20044;-82
2022/06/16 13:22:27;;;;;;;1.85;0.70;;;;;;;;;;4926703;29;20055;-82
2022/06/16 13:24:57;;;;;;;1.67;0.90;;;;;;;;;;4943418;29;20163;-82
2022/06/16 13:27:24;;;;;;;3.15;1.05;;;;;;;;;;4914437;29;20170;-82
2022/06/16 13:29:52;;;;;;;10.50;1.45;;;;;;;;;;4909963;29;20091;-82
2022/06/16 13:32:38;;;;;;;5.55;0.90;;;;;;;;;;4913694;29;20166;-82
2022/06/16 13:35:14;;;;;;;8.15;1.35;;;;;;;;;;4911635;29;20096;-81
2022/06/16 13:37:46;;;;;;;5.68;0.90;;;;;;;;;;4913436;29;20095;-81
2022/06/16 13:40:17;;;;;;;9.25;1.30;;;;;;;;;;4927894;29;20060;-82
2022/06/16 13:42:44;;;;;;;2.63;1.00;;;;;;;;;;4916330;29;20087;-82
2022/06/16 13:45:11;;;;;;;3.13;1.10;;;;;;;;;;4931927;29;20815;-83
2022/06/16 13:48:16;;;;;;;5.57;0.90;;;;;;;;;;4931582;29;20091;-82
2022/06/16 13:50:43;;;;;;;4.95;1.13;;;;;;;;;;4931846;29;20485;-82
2022/06/16 13:53:11;;;;;;;5.13;1.00;;;;;;;;;;4933019;29;20075;-82
2022/06/16 13:55:45;;;;;;;4.28;1.30;;;;;;;;;;4934697;29;20083;-82
2022/06/16 13:58:12;;;;;;;2.00;1.00;;;;;;;;;;4933806;29;20051;-82
2022/06/16 14:00:39;;;;;;;4.75;1.33;;;;;;;;;;4929342;29;20473;-83
2022/06/16 14:03:16;;;;;;;7.03;1.58;;;;;;;;;;4932837;29;20155;-82
2022/06/16 14:05:49;;;;;;;31.02;4.47;;;;;;;;;;4929493;29;20134;-80
2022/06/16 14:08:17;;;;;;;8.75;1.20;;;;;;;;;;4924468;29;20127;-83
2022/06/16 14:10:56;;;;;;;5.68;0.68;;;;;;;;;;4921357;29;20472;-83
2022/06/16 14:13:44;;;;;;;5.00;0.90;;;;;;;;;;4932160;29;20066;-82
2022/06/16 14:16:11;;;;;;;5.38;0.90;;;;;;;;;;4929324;29;20460;-82
2022/06/16 14:19:02;;;;;;;3.38;1.00;;;;;;;;;;4926510;29;20056;-82
2022/06/16 14:21:33;;;;;;;4.78;0.80;;;;;;;;;;4929956;29;20060;-83
2022/06/16 14:24:01;;;;;;;7.07;1.10;;;;;;;;;;4929921;29;20122;-83
2022/06/16 14:26:30;;;;;;;5.03;1.08;;;;;;;;;;4930262;29;20143;-83
2022/06/16 14:28:59;;;;;;;7.07;0.85;;;;;;;;;;4924429;29;20131;-83
2022/06/16 14:31:31;;;;;;;4.43;1.10;;;;;;;;;;4932810;29;20093;-84
2022/06/16 14:34:30;;;;;;;4.78;0.70;;;;;;;;;;4929959;29;20058;-83
2022/06/16 14:37:18;;;;;;;2.28;0.70;;;;;;;;;;4889660;29;20134;-82
2022/06/16 14:39:50;;;;;;;5.00;0.80;;;;;;;;;;4925619;29;20052;-83
2022/06/16 14:42:20;;;;;;;21.58;1.23;;;;;;;;;;4929778;29;20079;-88
2022/06/16 14:45:10;;;;;;;62.08;2.33;;;;;;;;;;4925740;29;20075;-88
2022/06/16 14:47:47;;;;;;;6.60;1.42;;;;;;;;;;4930787;29;20552;-88
2022/06/16 14:50:26;;;;;;;6.00;0.60;;;;;;;;;;4932181;29;20408;-88
2022/06/16 14:53:06;;;;;;;3.53;0.65;;;;;;;;;;4930507;29;20083;-88
2022/06/16 14:55:53;;;;;;;1.65;0.40;;;;;;;;;;4938786;29;20079;-88
2022/06/16 14:58:23;;;;;;;7.20;0.75;;;;;;;;;;4929957;29;20556;-87
2022/06/16 15:00:53;;;;;;;2.95;0.60;;;;;;;;;;4929233;29;20126;-88
2022/06/16 15:03:25;;;;;;;50.58;2.65;;;;;;;;;;4931486;29;20090;-88
2022/06/16 15:05:52;;;;;;;10.48;0.50;;;;;;;;;;4932231;29;20079;-88
2022/06/16 15:08:28;;;;;;;1.92;0.82;;;;;;;;;;4948720;29;20052;-88
2022/06/16 15:10:57;;;;;;;3.75;0.70;;;;;;;;;;4933775;29;20102;-88
2022/06/16 15:13:26;;;;;;;11.88;0.65;;;;;;;;;;4934263;29;20048;-87
2022/06/16 15:15:58;;;;;;;155.35;6.78;;;;;;;;;;4933599;29;20051;-89
2022/06/16 15:18:30;;;;;;;7.22;0.80;;;;;;;;;;4931942;29;20666;-89
2022/06/16 15:20:59;;;;;;;3.92;0.70;;;;;;;;;;4934788;29;20102;-86
2022/06/16 15:23:31;;;;;;;6.55;0.80;;;;;;;;;;4927781;29;20064;-88